Flight Track Log - Related Links

Times and Time Zones

All times are in EDT time to prevent confusion due to time zone crossing. See the N5262F flight status page for this flight to view local times or setup timezone preferences in your user account.

Time Position Orientation Groundspeed Altitude Reporting Facility
EDT Latitude Longitude Course Direction KTS MPH feet Rate Location/Type
Fri 11:04:27 AM 41.5419 -81.5311 224° Southwest 76 87 2,400  Level Cleveland Center
Fri 11:05:03 AM 41.5303 -81.5461 224° Southwest 96 110 2,500 124 Climbing Cleveland Center
Fri 11:06:04 AM 41.5094 -81.5678 218° Southwest 98 113 2,600 81 Climbing Cleveland Center
Fri 11:06:17 AM 41.5067 -81.5692 201° Southwest 90 104 2,600 -100 Level Cleveland Center
Fri 11:07:04 AM 41.4883 -81.5925 224° Southwest 102 117 2,500 -97 Descending Cleveland Center
Fri 11:07:19 AM 41.4819 -81.5986 216° Southwest 98 113 2,500  Level Cleveland Center
Fri 11:08:05 AM 41.4669 -81.6197 227° Southwest 107 123 2,500  Level Cleveland Center
Fri 11:08:21 AM 41.4603 -81.6269 219° Southwest 104 120 2,500  Level Cleveland Center
Fri 11:09:05 AM 41.4456 -81.6469 226° Southwest 111 128 2,500  Level Cleveland Center
Fri 11:09:23 AM 41.4372 -81.6539 212° Southwest 106 122 2,500  Level Cleveland Center
Fri 11:10:06 AM 41.4219 -81.6739 224° Southwest 111 128 2,500  Level Cleveland Center
Fri 11:10:25 AM 41.4139 -81.6797 209° Southwest 108 124 2,500  Level Cleveland Center
Fri 11:11:07 AM 41.3986 -81.7008 226° Southwest 108 124 2,500  Level Cleveland Center
Fri 11:11:27 AM 41.3911 -81.7067 210° Southwest 109 125 2,500  Level Cleveland Center
Fri 11:12:07 AM 41.3850 -81.7350 254° West 102 117 2,500  Level Cleveland Center
Fri 11:12:29 AM 41.3800 -81.7408 221° Southwest 104 120 2,500  Level Cleveland Center
Fri 11:13:08 AM 41.3672 -81.7683 238° Southwest 112 129 2,500  Level Cleveland Center
Fri 11:13:30 AM 41.3614 -81.7731 211° Southwest 107 123 2,500  Level Cleveland Center
Fri 11:14:08 AM 41.3497 -81.7989 239° Southwest 103 119 2,500  Level Cleveland Center
Fri 11:14:32 AM 41.3422 -81.8100 228° Southwest 105 121 2,500  Level Cleveland Center
Fri 11:15:09 AM 41.3317 -81.8350 241° Southwest 108 124 2,500  Level Cleveland Center
Fri 11:15:34 AM 41.3253 -81.8419 219° Southwest 105 121 2,500  Level Cleveland Center
Fri 11:16:10 AM 41.3142 -81.8656 238° Southwest 103 119 2,500  Level Cleveland Center
Fri 11:16:35 AM 41.3089 -81.8733 228° Southwest 104 120 2,500  Level Cleveland Center
Fri 11:17:10 AM 41.2986 -81.8964 239° Southwest 105 121 2,500  Level Cleveland Center
Fri 11:17:37 AM 41.2931 -81.9058 232° Southwest 103 119 2,500  Level Cleveland Center
Fri 11:18:11 AM 41.2831 -81.9300 241° Southwest 106 122 2,500  Level Cleveland Center
Fri 11:18:39 AM 41.2778 -81.9397 234° Southwest 104 120 2,500  Level Cleveland Center
Fri 11:19:12 AM 41.2669 -81.9664 242° Southwest 110 127 2,500  Level Cleveland Center
Fri 11:19:41 AM 41.2614 -81.9742 226° Southwest 108 124 2,500  Level Cleveland Center
Fri 11:20:12 AM 41.2533 -82.0003 248° West 109 125 2,500  Level Cleveland Center
Fri 11:20:42 AM 41.2475 -82.0097 231° Southwest 108 124 2,500  Level Cleveland Center
Fri 11:21:19 AM 41.2394 -82.0369 249° West 102 117 2,500  Level Cleveland Center
Fri 11:21:44 AM 41.2358 -82.0444 237° Southwest 104 120 2,500  Level Cleveland Center
Fri 11:22:20 AM 41.2256 -82.0708 243° Southwest 103 119 2,500  Level Cleveland Center
Fri 11:22:45 AM 41.2194 -82.0831 236° Southwest 103 119 2,500  Level Cleveland Center
Fri 11:23:20 AM 41.2119 -82.1047 245° Southwest 101 116 2,500  Level Cleveland Center
Fri 11:23:47 AM 41.2053 -82.1161 232° Southwest 102 117 2,500  Level Cleveland Center
Fri 11:24:21 AM 41.1961 -82.1383 241° Southwest 104 120 2,500  Level Cleveland Center
Fri 11:24:49 AM 41.1897 -82.1486 230° Southwest 103 119 2,500  Level Cleveland Center
Fri 11:25:50 AM 41.1728 -82.1806 235° Southwest 104 120 2,500  Level Cleveland Center
Fri 11:26:52 AM 41.1567 -82.2153 238° Southwest 107 123 2,500  Level Cleveland Center
Fri 11:27:53 AM 41.1400 -82.2483 236° Southwest 107 123 2,500  Level Cleveland Center
Fri 11:28:55 AM 41.1236 -82.2803 236° Southwest 105 121 2,500  Level Cleveland Center
Fri 11:29:57 AM 41.1111 -82.3150 244° Southwest 105 121 2,500  Level Cleveland Center
Fri 11:30:58 AM 41.0956 -82.3453 236° Southwest 101 116 2,500  Level Cleveland Center
Fri 11:32:00 AM 41.0803 -82.3769 237° Southwest 101 116 2,500  Level Cleveland Center
Fri 11:33:01 AM 41.0644 -82.4153 241° Southwest 101 116 2,500  Level Cleveland Center
Fri 11:34:03 AM 41.0511 -82.4492 242° Southwest 101 116 2,500  Level Cleveland Center
Fri 11:35:05 AM 41.0358 -82.4831 239° Southwest 104 120 2,500  Level Cleveland Center
Fri 11:36:06 AM 41.0203 -82.5164 238° Southwest 105 121 2,500  Level Cleveland Center
Fri 11:37:08 AM 41.0042 -82.5492 237° Southwest 105 121 2,500  Level Cleveland Center
Fri 11:38:09 AM 40.9886 -82.5819 238° Southwest 104 120 2,500  Level Cleveland Center
Fri 11:39:11 AM 40.9750 -82.6136 240° Southwest 102 117 2,500  Level Cleveland Center
Fri 11:40:13 AM 40.9631 -82.6478 245° Southwest 101 116 2,500  Level Cleveland Center
Fri 11:41:14 AM 40.9497 -82.6822 243° Southwest 103 119 2,500  Level Cleveland Center
Fri 11:42:16 AM 40.9369 -82.7178 245° Southwest 105 121 2,500  Level Cleveland Center
Fri 11:43:17 AM 40.9208 -82.7503 237° Southwest 104 120 2,500  Level Cleveland Center
Fri 11:44:19 AM 40.9000 -82.7856 232° Southwest 103 119 2,500  Level Cleveland Center
Fri 11:45:20 AM 40.8814 -82.8189 234° Southwest 107 123 2,500 50 Level Cleveland Center
Fri 11:46:18 AM 40.8675 -82.8481 238° Southwest 110 127 2,600  Climbing Indianapolis Center
Fri 11:47:20 AM 40.8500 -82.8819 236° Southwest 110 127 2,500 -49 Descending Indianapolis Center
Fri 11:48:21 AM 40.8286 -82.9189 233° Southwest 108 124 2,500  Level Indianapolis Center
Fri 11:49:23 AM 40.8119 -82.9506 235° Southwest 106 122 2,500  Level Indianapolis Center
Fri 11:50:25 AM 40.7981 -82.9800 238° Southwest 106 122 2,500 152 Level Indianapolis Center
Fri 11:52:00 AM 40.7756 -83.0309 240° Southwest  Level FlightAware
Fri 11:52:40 AM 40.7617 -83.0603 240° Southwest 118 136 3,000  Level Indianapolis Center
Fri 11:53:42 AM 40.7483 -83.0944 243° Southwest 116 133 3,000  Level Indianapolis Center
Fri 11:54:43 AM 40.7328 -83.1306 240° Southwest 115 132 3,000  Level Indianapolis Center
Fri 11:55:45 AM 40.7192 -83.1672 244° Southwest 110 127 3,000  Level Indianapolis Center
Fri 11:56:46 AM 40.7017 -83.2006 235° Southwest 110 127 3,000 -244 Level Indianapolis Center
Fri 11:57:48 AM 40.6825 -83.2306 230° Southwest 95 109 2,500 -146 Descending Indianapolis Center
Fri 11:58:49 AM 40.6669 -83.2669 241° Southwest 109 125 2,700 49 Climbing Indianapolis Center
Fri 11:59:51 AM 40.6517 -83.3014 240° Southwest 110 127 2,600 -49 Descending Indianapolis Center
Fri 12:00:52 PM 40.6347 -83.3419 241° Southwest 108 124 2,600  Level Indianapolis Center
Fri 12:01:54 PM 40.6200 -83.3756 240° Southwest 107 123 2,600  Level Indianapolis Center
Fri 12:02:56 PM 40.6058 -83.4092 241° Southwest 106 122 2,600  Level Indianapolis Center
Fri 12:03:57 PM 40.5922 -83.4439 243° Southwest 106 122 2,600  Level Indianapolis Center
Fri 12:04:59 PM 40.5761 -83.4761 237° Southwest 106 122 2,600  Level Indianapolis Center
Fri 12:06:00 PM 40.5625 -83.5103 242° Southwest 106 122 2,600  Level Indianapolis Center
Fri 12:07:02 PM 40.5469 -83.5467 241° Southwest 109 125 2,600  Level Indianapolis Center
Fri 12:07:15 PM 40.5425 -83.5561 238° Southwest 112 129 2,600  Level Indianapolis Center
Fri 12:08:03 PM 40.5303 -83.5828 239° Southwest 113 130 2,600  Level Indianapolis Center
Fri 12:08:33 PM 40.5211 -83.6022 238° Southwest 114 131 2,600 -152 Level Indianapolis Center
Fri 12:09:22 PM 40.5078 -83.6303 238° Southwest 108 124 2,400 -128 Descending Indianapolis Center
Fri 12:10:07 PM 40.4969 -83.6544 239° Southwest 109 125 2,400  Level Indianapolis Center
Fri 12:12:00 PM 40.4548 -83.6957 217° Southwest  Level FlightAware
Fri 12:13:25 PM 40.4417 -83.7647 217° Southwest 105 121 2,400  Level Indianapolis Center
Fri 12:14:20 PM 40.4281 -83.7953 240° Southwest 105 121 2,400  Level Indianapolis Center
Fri 12:15:21 PM 40.4097 -83.8306 236° Southwest 108 124 2,400 -50 Level Indianapolis Center
Fri 12:16:21 PM 40.3942 -83.8608 236° Southwest 107 123 2,300 -99 Descending Indianapolis Center
Fri 12:17:22 PM 40.3758 -83.8961 236° Southwest 117 135 2,200 -47 Descending Indianapolis Center
Fri 12:18:29 PM 40.3569 -83.9342 237° Southwest 114 131 2,200  Level Indianapolis Center
Fri 12:19:24 PM 40.3417 -83.9617 234° Southwest 108 124 2,200  Level Indianapolis Center
Fri 12:20:25 PM 40.3256 -83.9947 237° Southwest 103 119 2,200  Level Indianapolis Center
Fri 12:21:25 PM 40.3075 -84.0272 234° Southwest 108 124 2,200  Level Indianapolis Center
Fri 12:22:32 PM 40.2886 -84.0678 239° Southwest 113 130 2,200  Level Indianapolis Center
Fri 12:23:33 PM 40.2725 -84.1006 237° Southwest 111 128 2,200  Level Indianapolis Center
Fri 12:24:34 PM 40.2564 -84.1333 237° Southwest 105 121 2,200  Level Indianapolis Center
Fri 12:25:35 PM 40.2400 -84.1689 239° Southwest 110 127 2,200  Level Indianapolis Center
Fri 12:26:36 PM 40.2236 -84.2044 239° Southwest 114 131 2,200  Level Indianapolis Center
Fri 12:27:37 PM 40.2056 -84.2369 234° Southwest 105 121 2,200  Level Indianapolis Center
Fri 12:28:37 PM 40.1897 -84.2669 235° Southwest 104 120 2,200  Level Indianapolis Center
Fri 12:29:44 PM 40.1672 -84.3014 229° Southwest 106 122 2,200  Level Indianapolis Center
Fri 12:30:39 PM 40.1519 -84.3258 231° Southwest 105 121 2,200  Level Indianapolis Center
Fri 12:31:40 PM 40.1333 -84.3611 235° Southwest 107 123 2,200  Level Indianapolis Center
Fri 12:32:41 PM 40.1175 -84.3911 235° Southwest 108 124 2,200  Level Indianapolis Center
Fri 12:33:42 PM 40.1014 -84.4236 237° Southwest 106 122 2,200  Level Indianapolis Center
Fri 12:34:43 PM 40.0853 -84.4564 237° Southwest 106 122 2,200  Level Indianapolis Center
Fri 12:35:44 PM 40.0669 -84.4886 233° Southwest 110 127 2,200  Level Indianapolis Center
Fri 12:36:39 PM 40.0531 -84.5217 241° Southwest 113 130 2,200  Level Indianapolis Center
Fri 12:37:46 PM 40.0358 -84.5625 241° Southwest 113 130 2,200  Level Indianapolis Center
Fri 12:38:46 PM 40.0158 -84.5917 228° Southwest 111 128 2,200  Level Indianapolis Center
Fri 12:39:47 PM 39.9975 -84.6239 233° Southwest 107 123 2,200  Level Indianapolis Center
Fri 12:40:48 PM 39.9797 -84.6533 232° Southwest 110 127 2,200  Level Indianapolis Center
Fri 12:41:49 PM 39.9586 -84.6906 234° Southwest 114 131 2,200  Level Indianapolis Center
Fri 12:42:50 PM 39.9425 -84.7231 237° Southwest 109 125 2,200  Level Indianapolis Center
Fri 12:43:45 PM 39.9264 -84.7528 235° Southwest 105 121 2,200  Level Indianapolis Center
Fri 12:44:52 PM 39.9100 -84.7881 239° Southwest 108 124 2,200  Level Indianapolis Center
Fri 12:45:47 PM 39.8961 -84.8183 239° Southwest 111 128 2,200  Level Indianapolis Center
Fri 12:46:54 PM 39.8786 -84.8614 242° Southwest 114 131 2,200  Level Indianapolis Center
Fri 12:47:55 PM 39.8622 -84.8939 237° Southwest 111 128 2,200  Level Indianapolis Center
Fri 12:49:00 PM 39.8423 -84.9269 232° Southwest  Level FlightAware
Fri 12:56:00 PM 39.7135 -85.1396 232° Southwest  Level FlightAware
Fri 12:57:00 PM 39.6951 -85.1699 232° Southwest  Level FlightAware
Fri 12:58:00 PM 39.6767 -85.2002 232° Southwest  Level FlightAware
Fri 12:59:00 PM 39.6587 -85.2317 236° Southwest  Level FlightAware
Fri 01:00:00 PM 39.6419 -85.2635 236° Southwest  Level FlightAware
Fri 01:01:00 PM 39.6251 -85.2954 236° Southwest  Level FlightAware
Fri 01:02:00 PM 39.6082 -85.3272 236° Southwest  Level FlightAware
Fri 01:03:00 PM 39.5914 -85.3590 235° Southwest  Level FlightAware
Fri 01:04:00 PM 39.5745 -85.3907 235° Southwest  Level FlightAware
Fri 01:05:00 PM 39.5576 -85.4225 235° Southwest  Level FlightAware
Fri 01:06:00 PM 39.5408 -85.4543 235° Southwest  Level FlightAware
Fri 01:07:00 PM 39.5239 -85.4860 235° Southwest  Level FlightAware
Fri 01:08:00 PM 39.5070 -85.5177 235° Southwest  Level FlightAware
Fri 01:09:00 PM 39.4901 -85.5494 235° Southwest  Level FlightAware
Fri 01:10:00 PM 39.4732 -85.5811 235° Southwest  Level FlightAware
Fri 01:11:00 PM 39.4562 -85.6127 235° Southwest  Level FlightAware
Fri 01:12:00 PM 39.4393 -85.6444 235° Southwest  Level FlightAware
Fri 01:13:00 PM 39.4224 -85.6760 235° Southwest  Level FlightAware
Fri 01:14:00 PM 39.4054 -85.7077 235° Southwest  Level FlightAware
Fri 01:15:00 PM 39.3885 -85.7393 235° Southwest  Level FlightAware
Fri 01:16:00 PM 39.3715 -85.7709 235° Southwest  Level FlightAware
Fri 01:17:00 PM 39.3545 -85.8024 235° Southwest  Level FlightAware
Fri 01:18:00 PM 39.3376 -85.8340 235° Southwest  Level FlightAware
Fri 01:19:00 PM 39.3206 -85.8655 235° Southwest  Level FlightAware
Fri 01:20:00 PM 39.3036 -85.8971 235° Southwest  Level FlightAware
Fri 01:21:00 PM 39.2866 -85.9286 235° Southwest  Level FlightAware
Fri 01:22:00 PM 39.2696 -85.9601 235° Southwest  Level FlightAware
Fri 01:23:00 PM 39.2525 -85.9916 235° Southwest  Level FlightAware
Fri 01:24:00 PM 39.2355 -86.0230 235° Southwest  Level FlightAware
Fri 01:25:00 PM 39.2185 -86.0545 235° Southwest  Level FlightAware
Fri 01:26:00 PM 39.2014 -86.0859 235° Southwest  Level FlightAware
Fri 01:27:00 PM 39.1844 -86.1173 235° Southwest  Level FlightAware
Fri 01:28:00 PM 39.1673 -86.1488 235° Southwest  Level FlightAware
Fri 01:29:00 PM 39.1502 -86.1801 235° Southwest  Level FlightAware
Fri 01:30:00 PM 39.1331 -86.2115 235° Southwest  Level FlightAware
Fri 01:31:00 PM 39.1161 -86.2429 235° Southwest  Level FlightAware
Fri 01:32:00 PM 39.0990 -86.2742 235° Southwest  Level FlightAware
Fri 01:33:00 PM 39.0818 -86.3056 235° Southwest  Level FlightAware
Fri 01:34:00 PM 39.0650 -86.3371 240° Southwest  Level FlightAware
Fri 01:35:00 PM 39.0503 -86.3704 240° Southwest  Level FlightAware
Fri 01:36:00 PM 39.0355 -86.4036 240° Southwest  Level FlightAware
Fri 01:37:00 PM 39.0207 -86.4368 240° Southwest  Level FlightAware
Fri 01:38:00 PM 39.0059 -86.4700 240° Southwest  Level FlightAware
Fri 01:39:00 PM 38.9860 -86.4974 218° Southwest  Level FlightAware
Fri 01:40:00 PM 38.9678 -86.5274 234° Southwest  Level FlightAware
Fri 01:41:00 PM 38.9502 -86.5583 234° Southwest  Level FlightAware
Fri 01:42:00 PM 38.9327 -86.5892 234° Southwest  Level FlightAware
Fri 01:43:00 PM 38.9151 -86.6200 234° Southwest  Level FlightAware
Fri 01:44:00 PM 38.8975 -86.6508 234° Southwest  Level FlightAware
Fri 01:45:00 PM 38.8800 -86.6817 234° Southwest  Level FlightAware
Fri 01:46:00 PM 38.8624 -86.7125 234° Southwest  Level FlightAware
Fri 01:47:00 PM 38.8448 -86.7432 234° Southwest  Level FlightAware
Fri 01:48:00 PM 38.8272 -86.7740 234° Southwest  Level FlightAware
Fri 01:49:00 PM 38.8096 -86.8048 234° Southwest  Level FlightAware
Fri 01:50:00 PM 38.7920 -86.8355 234° Southwest  Level FlightAware
Fri 01:51:00 PM 38.7744 -86.8662 234° Southwest  Level FlightAware
Fri 01:52:00 PM 38.7568 -86.8969 234° Southwest  Level FlightAware
Fri 01:53:00 PM 38.7391 -86.9276 234° Southwest  Level FlightAware
Fri 01:54:00 PM 38.7215 -86.9583 234° Southwest  Level FlightAware
Fri 01:55:00 PM 38.7043 -86.9894 235° Southwest  Level FlightAware
Fri 01:56:00 PM 38.6873 -87.0207 235° Southwest  Level FlightAware
Fri 01:57:00 PM 38.6703 -87.0519 235° Southwest  Level FlightAware
Fri 01:58:00 PM 38.6534 -87.0832 235° Southwest  Level FlightAware
Fri 01:59:00 PM 38.6363 -87.1144 235° Southwest  Level FlightAware
Fri 02:00:00 PM 38.6193 -87.1456 235° Southwest  Level FlightAware
Fri 02:01:00 PM 38.6023 -87.1768 235° Southwest  Level FlightAware
Fri 02:02:00 PM 38.5853 -87.2080 235° Southwest  Level FlightAware
Fri 02:03:00 PM 38.5682 -87.2392 235° Southwest  Level FlightAware
Fri 02:04:00 PM 38.5512 -87.2703 235° Southwest  Level FlightAware
Fri 02:05:00 PM 38.5341 -87.3015 235° Southwest  Level FlightAware
Fri 02:06:00 PM 38.5171 -87.3326 235° Southwest  Level FlightAware
Fri 02:07:00 PM 38.4995 -87.3632 234° Southwest  Level FlightAware
Fri 02:08:00 PM 38.4819 -87.3939 234° Southwest  Level FlightAware
Fri 02:09:00 PM 38.4643 -87.4245 234° Southwest  Level FlightAware
Fri 02:10:00 PM 38.4467 -87.4551 234° Southwest  Level FlightAware
Fri 02:11:00 PM 38.4291 -87.4856 234° Southwest  Level FlightAware
Fri 02:12:00 PM 38.4115 -87.5162 234° Southwest  Level FlightAware
Fri 02:13:00 PM 38.3938 -87.5468 234° Southwest  Level FlightAware
Fri 02:14:00 PM 38.3762 -87.5773 234° Southwest  Level FlightAware
Fri 02:15:00 PM 38.3585 -87.6078 234° Southwest  Level FlightAware
Fri 02:16:00 PM 38.3409 -87.6383 234° Southwest  Level FlightAware
Fri 02:17:00 PM 38.3232 -87.6688 234° Southwest  Level FlightAware
Fri 02:18:00 PM 38.3055 -87.6993 234° Southwest  Level FlightAware
Fri 02:19:00 PM 38.2879 -87.7297 234° Southwest  Level FlightAware
Fri 02:20:00 PM 38.2702 -87.7602 234° Southwest  Level FlightAware
Fri 02:21:00 PM 38.2525 -87.7906 233° Southwest  Level FlightAware
Fri 02:22:00 PM 38.2348 -87.8210 233° Southwest  Level FlightAware
Fri 02:23:00 PM 38.2171 -87.8514 233° Southwest  Level FlightAware
Fri 02:24:00 PM 38.1993 -87.8818 233° Southwest  Level FlightAware
Fri 02:25:00 PM 38.1816 -87.9122 233° Southwest  Level FlightAware
Fri 02:26:00 PM 38.1639 -87.9425 233° Southwest  Level FlightAware
Fri 02:27:00 PM 38.1461 -87.9729 233° Southwest  Level FlightAware
Fri 02:28:00 PM 38.1284 -88.0032 233° Southwest  Level FlightAware
Fri 02:29:00 PM 38.1106 -88.0335 233° Southwest  Level FlightAware
Fri 02:30:00 PM 38.0929 -88.0638 233° Southwest  Level FlightAware
Fri 02:31:00 PM 38.0751 -88.0941 233° Southwest  Level FlightAware
Fri 02:32:00 PM 38.0573 -88.1244 233° Southwest  Level FlightAware
Fri 02:33:00 PM 38.0395 -88.1546 233° Southwest  Level FlightAware
Fri 02:34:00 PM 38.0217 -88.1849 233° Southwest  Level FlightAware
Fri 02:35:00 PM 38.0039 -88.2151 233° Southwest  Level FlightAware
Fri 02:36:00 PM 37.9861 -88.2453 233° Southwest  Level FlightAware
Fri 02:37:00 PM 37.9699 -88.2769 238° Southwest  Level FlightAware
Fri 02:38:00 PM 37.9523 -88.3073 233° Southwest  Level FlightAware
Fri 02:39:00 PM 37.9343 -88.3372 233° Southwest  Level FlightAware
Fri 02:40:00 PM 37.9163 -88.3672 233° Southwest  Level FlightAware
Fri 02:41:00 PM 37.8982 -88.3972 233° Southwest  Level FlightAware
Fri 02:42:00 PM 37.8802 -88.4271 233° Southwest  Level FlightAware
Fri 02:43:00 PM 37.8621 -88.4571 233° Southwest  Level FlightAware
Fri 02:44:00 PM 37.8441 -88.4870 233° Southwest  Level FlightAware
Fri 02:45:00 PM 37.8260 -88.5169 233° Southwest  Level FlightAware
Fri 02:46:00 PM 37.8079 -88.5468 233° Southwest  Level FlightAware
Fri 02:47:00 PM 37.7899 -88.5767 233° Southwest  Level FlightAware
Fri 02:48:00 PM 37.7718 -88.6065 233° Southwest  Level FlightAware
Fri 02:49:00 PM 37.7537 -88.6364 233° Southwest  Level FlightAware
Fri 02:50:00 PM 37.7356 -88.6662 233° Southwest  Level FlightAware
Fri 02:51:00 PM 37.7175 -88.6960 232° Southwest  Level FlightAware
Fri 02:52:00 PM 37.6994 -88.7258 232° Southwest  Level FlightAware
Fri 02:53:00 PM 37.6812 -88.7556 232° Southwest  Level FlightAware
Fri 02:54:00 PM 37.6631 -88.7854 232° Southwest  Level FlightAware
Fri 02:55:00 PM 37.6450 -88.8151 232° Southwest  Level FlightAware
Fri 02:56:00 PM 37.6268 -88.8449 232° Southwest  Level FlightAware
Fri 02:57:00 PM 37.6087 -88.8746 232° Southwest  Level FlightAware
Fri 02:58:00 PM 37.5905 -88.9043 232° Southwest  Level FlightAware
Fri 02:59:00 PM 37.5723 -88.9340 232° Southwest  Level FlightAware
Fri 03:00:00 PM 37.5542 -88.9637 232° Southwest  Level FlightAware
Fri 03:01:00 PM 37.5360 -88.9934 232° Southwest  Level FlightAware
Fri 03:02:00 PM 37.5178 -89.0230 232° Southwest  Level FlightAware
Fri 03:03:00 PM 37.4996 -89.0527 232° Southwest  Level FlightAware
Fri 03:04:00 PM 37.4814 -89.0823 232° Southwest  Level FlightAware
Fri 03:05:00 PM 37.4632 -89.1119 232° Southwest  Level FlightAware
Fri 03:06:00 PM 37.4456 -89.1421 238° Southwest  Level FlightAware
Fri 03:07:00 PM 37.4293 -89.1734 233° Southwest  Level FlightAware
Fri 03:08:00 PM 37.4115 -89.2033 233° Southwest  Level FlightAware
Fri 03:09:00 PM 37.3936 -89.2332 233° Southwest  Level FlightAware
Fri 03:10:00 PM 37.3758 -89.2631 233° Southwest  Level FlightAware
Fri 03:11:00 PM 37.3579 -89.2930 233° Southwest  Level FlightAware
Fri 03:12:00 PM 37.3400 -89.3229 233° Southwest  Level FlightAware
Fri 03:13:00 PM 37.3221 -89.3528 233° Southwest  Level FlightAware
Fri 03:14:00 PM 37.3042 -89.3826 233° Southwest  Level FlightAware
Fri 03:15:00 PM 37.2863 -89.4124 233° Southwest  Level FlightAware
Fri 03:16:00 PM 37.2684 -89.4423 233° Southwest  Level FlightAware
Fri 03:17:00 PM 37.2504 -89.4721 233° Southwest  Level FlightAware
Fri 03:18:00 PM 37.2325 -89.5019 233° Southwest  Level FlightAware
Fri 03:19:00 PM 37.2146 -89.5316 233° Southwest  Level FlightAware
Fri 03:20:00 PM 37.1966 -89.5614 233° Southwest  Level FlightAware
Fri 03:21:00 PM 37.1787 -89.5911 233° Southwest  Level FlightAware
Fri 03:22:00 PM 37.1607 -89.6209 233° Southwest  Level FlightAware
Fri 03:23:00 PM 37.1427 -89.6506 233° Southwest  Level FlightAware
Fri 03:24:00 PM 37.1248 -89.6803 233° Southwest  Level FlightAware
Fri 03:25:00 PM 37.1068 -89.7100 233° Southwest  Level FlightAware
Fri 03:26:00 PM 37.0888 -89.7397 233° Southwest  Level FlightAware
Fri 03:27:00 PM 37.0708 -89.7693 233° Southwest  Level FlightAware
Fri 03:28:00 PM 37.0528 -89.7990 233° Southwest  Level FlightAware
Fri 03:29:00 PM 37.0348 -89.8286 233° Southwest  Level FlightAware
Fri 03:30:00 PM 37.0168 -89.8583 233° Southwest  Level FlightAware
Fri 03:31:00 PM 36.9987 -89.8879 233° Southwest  Level FlightAware
Fri 03:32:00 PM 36.9807 -89.9174 233° Southwest  Level FlightAware
Fri 03:33:00 PM 36.9626 -89.9470 233° Southwest  Level FlightAware
Fri 03:34:00 PM 36.9446 -89.9766 233° Southwest  Level FlightAware
Fri 03:35:00 PM 36.9265 -90.0061 233° Southwest  Level FlightAware
Fri 03:36:00 PM 36.9085 -90.0357 233° Southwest  Level FlightAware
Fri 03:37:00 PM 36.8904 -90.0652 233° Southwest  Level FlightAware
Fri 03:38:00 PM 36.8723 -90.0947 233° Southwest  Level FlightAware
Fri 03:39:00 PM 36.8542 -90.1242 233° Southwest  Level FlightAware
Fri 03:40:00 PM 36.8361 -90.1537 233° Southwest  Level FlightAware
Fri 03:41:00 PM 36.8180 -90.1832 233° Southwest  Level FlightAware
Fri 03:42:00 PM 36.7999 -90.2126 232° Southwest  Level FlightAware
Fri 03:43:00 PM 36.7818 -90.2421 232° Southwest  Level FlightAware
Fri 03:44:00 PM 36.7637 -90.2715 232° Southwest  Level FlightAware
Fri 03:45:00 PM 36.7454 -90.3007 232° Southwest  Level FlightAware
Fri 03:46:00 PM 36.7271 -90.3300 232° Southwest  Level FlightAware
Fri 03:47:00 PM 36.7088 -90.3592 232° Southwest  Level FlightAware
Fri 03:48:00 PM 36.6905 -90.3884 232° Southwest  Level FlightAware
Fri 03:49:00 PM 36.6722 -90.4176 232° Southwest  Level FlightAware
Fri 03:50:00 PM 36.6539 -90.4468 232° Southwest  Level FlightAware
Fri 03:51:00 PM 36.6355 -90.4760 232° Southwest  Level FlightAware
Fri 03:52:00 PM 36.6172 -90.5052 232° Southwest  Level FlightAware
Fri 03:53:00 PM 36.5989 -90.5343 232° Southwest  Level FlightAware
Fri 03:54:00 PM 36.5805 -90.5635 232° Southwest  Level FlightAware
Fri 03:55:00 PM 36.5622 -90.5926 232° Southwest  Level FlightAware
Fri 03:56:00 PM 36.5438 -90.6217 232° Southwest  Level FlightAware
Fri 03:57:00 PM 36.5254 -90.6508 232° Southwest  Level FlightAware
Fri 03:58:00 PM 36.5071 -90.6799 232° Southwest  Level FlightAware
Fri 03:59:00 PM 36.4887 -90.7090 232° Southwest  Level FlightAware
Fri 04:00:00 PM 36.4703 -90.7380 232° Southwest  Level FlightAware
Fri 04:01:00 PM 36.4519 -90.7671 232° Southwest  Level FlightAware
Fri 04:02:00 PM 36.4335 -90.7961 232° Southwest  Level FlightAware
Fri 04:03:00 PM 36.4151 -90.8251 232° Southwest  Level FlightAware
Fri 04:04:00 PM 36.3967 -90.8541 232° Southwest  Level FlightAware
Fri 04:05:00 PM 36.3782 -90.8831 232° Southwest  Level FlightAware
Fri 04:06:00 PM 36.3598 -90.9121 232° Southwest  Level FlightAware
Fri 04:07:00 PM 36.3414 -90.9410 232° Southwest  Level FlightAware
Fri 04:08:00 PM 36.3229 -90.9700 232° Southwest  Level FlightAware
Fri 04:09:00 PM 36.3045 -90.9989 232° Southwest  Level FlightAware
Fri 04:10:00 PM 36.2860 -91.0278 232° Southwest  Level FlightAware
Fri 04:11:00 PM 36.2675 -91.0567 232° Southwest  Level FlightAware
Fri 04:12:00 PM 36.2491 -91.0856 232° Southwest  Level FlightAware
Fri 04:13:00 PM 36.2306 -91.1145 232° Southwest  Level FlightAware
Fri 04:14:00 PM 36.2121 -91.1434 232° Southwest  Level FlightAware
Fri 04:15:00 PM 36.1936 -91.1722 232° Southwest  Level FlightAware
Fri 04:16:00 PM 36.1751 -91.2011 232° Southwest  Level FlightAware
Fri 04:17:00 PM 36.1566 -91.2299 232° Southwest  Level FlightAware
Fri 04:18:00 PM 36.1381 -91.2587 231° Southwest  Level FlightAware
Fri 04:19:00 PM 36.1196 -91.2875 231° Southwest  Level FlightAware
Fri 04:20:00 PM 36.1010 -91.3163 231° Southwest  Level FlightAware
Fri 04:21:00 PM 36.0825 -91.3450 231° Southwest  Level FlightAware
Fri 04:22:00 PM 36.0640 -91.3738 231° Southwest  Level FlightAware
Fri 04:23:00 PM 36.0454 -91.4025 231° Southwest  Level FlightAware
Fri 04:24:00 PM 36.0269 -91.4313 231° Southwest  Level FlightAware
Fri 04:25:00 PM 36.0083 -91.4600 231° Southwest  Level FlightAware
Fri 04:26:00 PM 35.9897 -91.4887 231° Southwest  Level FlightAware
Fri 04:27:00 PM 35.9711 -91.5174 231° Southwest  Level FlightAware
Fri 04:28:00 PM 35.9526 -91.5461 231° Southwest  Level FlightAware
Fri 04:29:00 PM 35.9342 -91.5749 232° Southwest  Level FlightAware
Fri 04:30:00 PM 35.9158 -91.6038 232° Southwest  Level FlightAware
Fri 04:31:00 PM 35.8974 -91.6327 232° Southwest  Level FlightAware
Fri 04:32:00 PM 35.8791 -91.6615 232° Southwest  Level FlightAware
Fri 04:33:00 PM 35.8607 -91.6904 232° Southwest  Level FlightAware
Fri 04:34:00 PM 35.8423 -91.7192 232° Southwest  Level FlightAware
Fri 04:35:00 PM 35.8239 -91.7480 232° Southwest  Level FlightAware
Fri 04:36:00 PM 35.8055 -91.7768 232° Southwest  Level FlightAware
Fri 04:37:00 PM 35.7871 -91.8056 232° Southwest  Level FlightAware
Fri 04:38:00 PM 35.7687 -91.8344 232° Southwest  Level FlightAware
Fri 04:39:00 PM 35.7503 -91.8631 232° Southwest  Level FlightAware
Fri 04:40:00 PM 35.7318 -91.8919 232° Southwest  Level FlightAware
Fri 04:41:00 PM 35.7134 -91.9206 232° Southwest  Level FlightAware
Fri 04:42:00 PM 35.6950 -91.9493 232° Southwest  Level FlightAware
Fri 04:43:00 PM 35.6765 -91.9780 232° Southwest  Level FlightAware
Fri 04:44:00 PM 35.6581 -92.0067 232° Southwest  Level FlightAware
Fri 04:45:00 PM 35.6396 -92.0354 232° Southwest  Level FlightAware
Fri 04:46:00 PM 35.6211 -92.0641 232° Southwest  Level FlightAware
Fri 04:47:00 PM 35.6027 -92.0927 232° Southwest  Level FlightAware
Fri 04:48:00 PM 35.5842 -92.1214 232° Southwest  Level FlightAware
Fri 04:49:00 PM 35.5657 -92.1500 232° Southwest  Level FlightAware
Fri 04:50:00 PM 35.5472 -92.1786 232° Southwest  Level FlightAware
Fri 04:51:00 PM 35.5287 -92.2072 232° Southwest  Level FlightAware
Fri 04:52:00 PM 35.5102 -92.2358 232° Southwest  Level FlightAware
Fri 04:53:00 PM 35.4917 -92.2644 231° Southwest  Level FlightAware
Fri 04:54:00 PM 35.4731 -92.2930 231° Southwest  Level FlightAware
Fri 04:55:00 PM 35.4546 -92.3215 231° Southwest  Level FlightAware
Fri 04:56:00 PM 35.4361 -92.3501 231° Southwest  Level FlightAware
Fri 04:57:00 PM 35.4175 -92.3786 231° Southwest  Level FlightAware
Fri 04:58:00 PM 35.3990 -92.4071 231° Southwest  Level FlightAware
Fri 04:59:00 PM 35.3804 -92.4356 231° Southwest  Level FlightAware
Fri 05:00:00 PM 35.3619 -92.4641 231° Southwest  Level FlightAware
Fri 05:01:00 PM 35.3433 -92.4925 231° Southwest  Level FlightAware
Fri 05:02:00 PM 35.3247 -92.5210 231° Southwest  Level FlightAware
Fri 05:03:00 PM 35.3053 -92.5485 227° Southwest  Level FlightAware
Fri 05:04:00 PM 35.2852 -92.5753 227° Southwest  Level FlightAware
Fri 05:05:00 PM 35.2650 -92.6022 227° Southwest  Level FlightAware
Fri 05:06:00 PM 35.2449 -92.6290 227° Southwest  Level FlightAware
Fri 05:07:00 PM 35.2248 -92.6558 227° Southwest  Level FlightAware
Fri 05:08:00 PM 35.2055 -92.6835 231° Southwest  Level FlightAware
Fri 05:09:00 PM 35.1868 -92.7117 231° Southwest  Level FlightAware
Fri 05:10:00 PM 35.1681 -92.7400 231° Southwest  Level FlightAware
Fri 05:11:00 PM 35.1493 -92.7682 231° Southwest  Level FlightAware
Fri 05:12:00 PM 35.1306 -92.7964 231° Southwest  Level FlightAware
Fri 05:13:00 PM 35.1118 -92.8246 231° Southwest  Level FlightAware
Fri 05:14:00 PM 35.0931 -92.8528 231° Southwest  Level FlightAware
Fri 05:15:00 PM 35.0743 -92.8810 231° Southwest  Level FlightAware
Fri 05:16:00 PM 35.0555 -92.9092 231° Southwest  Level FlightAware
Fri 05:17:00 PM 35.0367 -92.9373 231° Southwest  Level FlightAware
Fri 05:18:00 PM 35.0179 -92.9654 231° Southwest  Level FlightAware
Fri 05:19:00 PM 34.9991 -92.9936 231° Southwest  Level FlightAware
Fri 05:20:00 PM 34.9804 -93.0217 231° Southwest  Level FlightAware
Fri 05:21:00 PM 34.9615 -93.0498 231° Southwest  Level FlightAware
Fri 05:22:00 PM 34.9427 -93.0779 231° Southwest  Level FlightAware
Fri 05:23:00 PM 34.9239 -93.1060 231° Southwest  Level FlightAware
Fri 05:24:00 PM 34.9051 -93.1340 231° Southwest  Level FlightAware
Fri 05:25:00 PM 34.8862 -93.1621 231° Southwest  Level FlightAware
Fri 05:26:00 PM 34.8674 -93.1901 231° Southwest  Level FlightAware
Fri 05:27:00 PM 34.8486 -93.2181 231° Southwest  Level FlightAware
Fri 05:28:00 PM 34.8297 -93.2461 231° Southwest  Level FlightAware
Fri 05:29:00 PM 34.8108 -93.2741 231° Southwest  Level FlightAware
Fri 05:30:00 PM 34.7920 -93.3021 231° Southwest  Level FlightAware
Fri 05:31:00 PM 34.7731 -93.3301 231° Southwest  Level FlightAware
Fri 05:32:00 PM 34.7542 -93.3581 231° Southwest  Level FlightAware
Fri 05:33:00 PM 34.7354 -93.3860 231° Southwest  Level FlightAware
Fri 05:34:00 PM 34.7165 -93.4139 231° Southwest  Level FlightAware
Fri 05:35:00 PM 34.6976 -93.4419 231° Southwest  Level FlightAware
Fri 05:36:00 PM 34.6787 -93.4698 231° Southwest  Level FlightAware
Fri 05:37:00 PM 34.6598 -93.4977 231° Southwest  Level FlightAware
Fri 05:38:00 PM 34.6408 -93.5256 230° Southwest  Level FlightAware
Fri 05:39:00 PM 34.6219 -93.5534 230° Southwest  Level FlightAware
Fri 05:40:00 PM 34.6030 -93.5813 230° Southwest  Level FlightAware
Fri 05:41:00 PM 34.5840 -93.6091 230° Southwest  Level FlightAware
Fri 05:42:00 PM 34.5651 -93.6370 230° Southwest  Level FlightAware
Fri 05:43:00 PM 34.5462 -93.6648 230° Southwest  Level FlightAware
Fri 05:44:00 PM 34.5272 -93.6926 230° Southwest  Level FlightAware
Fri 05:45:00 PM 34.5082 -93.7204 230° Southwest  Level FlightAware
Fri 05:46:00 PM 34.4893 -93.7482 230° Southwest  Level FlightAware
Fri 05:47:00 PM 34.4703 -93.7759 230° Southwest  Level FlightAware
Fri 05:48:00 PM 34.4513 -93.8037 230° Southwest  Level FlightAware
Fri 05:49:00 PM 34.4323 -93.8315 230° Southwest  Level FlightAware
Fri 05:50:00 PM 34.4133 -93.8592 230° Southwest  Level FlightAware
Fri 05:51:00 PM 34.3943 -93.8869 230° Southwest  Level FlightAware
Fri 05:52:00 PM 34.3753 -93.9146 230° Southwest  Level FlightAware
Fri 05:53:00 PM 34.3563 -93.9423 230° Southwest  Level FlightAware
Fri 05:54:00 PM 34.3373 -93.9700 230° Southwest  Level FlightAware
Fri 05:55:00 PM 34.3183 -93.9977 230° Southwest  Level FlightAware
Fri 05:56:00 PM 34.2996 -94.0256 231° Southwest  Level FlightAware
Fri 05:57:00 PM 34.2808 -94.0536 230° Southwest  Level FlightAware
Fri 05:58:00 PM 34.2616 -94.0811 230° Southwest  Level FlightAware
Fri 05:59:00 PM 34.2424 -94.1085 230° Southwest  Level FlightAware
Fri 06:00:00 PM 34.2232 -94.1360 230° Southwest  Level FlightAware
Fri 06:01:00 PM 34.2040 -94.1634 230° Southwest  Level FlightAware
Fri 06:02:00 PM 34.1848 -94.1908 230° Southwest  Level FlightAware
Fri 06:03:00 PM 34.1656 -94.2182 230° Southwest  Level FlightAware
Fri 06:04:00 PM 34.1464 -94.2457 230° Southwest  Level FlightAware
Fri 06:05:00 PM 34.1272 -94.2731 230° Southwest  Level FlightAware
Fri 06:06:00 PM 34.1079 -94.3005 230° Southwest  Level FlightAware
Fri 06:07:00 PM 34.0887 -94.3279 230° Southwest  Level FlightAware
Fri 06:08:00 PM 34.0695 -94.3553 230° Southwest  Level FlightAware
Fri 06:09:00 PM 34.0503 -94.3827 230° Southwest  Level FlightAware
Fri 06:10:00 PM 34.0311 -94.4100 230° Southwest  Level FlightAware
Fri 06:11:00 PM 34.0118 -94.4374 230° Southwest  Level FlightAware
Fri 06:12:00 PM 33.9926 -94.4647 230° Southwest  Level FlightAware
Fri 06:13:00 PM 33.9733 -94.4920 230° Southwest  Level FlightAware
Fri 06:14:00 PM 33.9540 -94.5193 230° Southwest  Level FlightAware
Fri 06:15:00 PM 33.9348 -94.5467 230° Southwest  Level FlightAware
Fri 06:16:00 PM 33.9155 -94.5739 230° Southwest  Level FlightAware
Fri 06:17:00 PM 33.8962 -94.6012 230° Southwest  Level FlightAware
Fri 06:18:00 PM 33.8770 -94.6285 230° Southwest  Level FlightAware
Fri 06:19:00 PM 33.8577 -94.6557 230° Southwest  Level FlightAware
Fri 06:20:00 PM 33.8384 -94.6830 230° Southwest  Level FlightAware
Fri 06:21:00 PM 33.8191 -94.7102 230° Southwest  Level FlightAware
Fri 06:22:00 PM 33.7998 -94.7374 230° Southwest  Level FlightAware
Fri 06:23:00 PM 33.7804 -94.7646 229° Southwest  Level FlightAware
Fri 06:24:00 PM 33.7611 -94.7918 229° Southwest  Level FlightAware
Fri 06:25:00 PM 33.7418 -94.8190 229° Southwest  Level FlightAware
Fri 06:26:00 PM 33.7225 -94.8461 229° Southwest  Level FlightAware
Fri 06:27:00 PM 33.7031 -94.8733 229° Southwest  Level FlightAware
Fri 06:28:00 PM 33.6838 -94.9004 229° Southwest  Level FlightAware
Fri 06:29:00 PM 33.6645 -94.9276 229° Southwest  Level FlightAware
Fri 06:30:00 PM 33.6451 -94.9547 229° Southwest  Level FlightAware
Fri 06:31:00 PM 33.6257 -94.9818 229° Southwest  Level FlightAware
Fri 06:32:00 PM 33.6064 -95.0089 229° Southwest  Level FlightAware
Fri 06:33:00 PM 33.5870 -95.0359 229° Southwest  Level FlightAware
Fri 06:34:00 PM 33.5676 -95.0630 229° Southwest  Level FlightAware
Fri 06:35:00 PM 33.5482 -95.0900 229° Southwest  Level FlightAware
Fri 06:36:00 PM 33.5289 -95.1171 229° Southwest  Level FlightAware
Fri 06:37:00 PM 33.5094 -95.1441 229° Southwest  Level FlightAware
Fri 06:38:00 PM 33.4901 -95.1711 229° Southwest  Level FlightAware
Fri 06:39:00 PM 33.4706 -95.1982 229° Southwest  Level FlightAware
Fri 06:40:00 PM 33.4512 -95.2251 229° Southwest  Level FlightAware
Fri 06:41:00 PM 33.4318 -95.2521 229° Southwest  Level FlightAware
Fri 06:42:00 PM 33.4124 -95.2791 229° Southwest  Level FlightAware
Fri 06:43:00 PM 33.3930 -95.3061 229° Southwest  Level FlightAware
Fri 06:44:00 PM 33.3736 -95.3331 229° Southwest  Level FlightAware
Fri 06:45:00 PM 33.3542 -95.3600 229° Southwest  Level FlightAware
Fri 06:46:00 PM 33.3348 -95.3870 229° Southwest  Level FlightAware
Fri 06:47:00 PM 33.3153 -95.4139 229° Southwest  Level FlightAware
Fri 06:48:00 PM 33.2959 -95.4409 229° Southwest  Level FlightAware
Fri 06:49:00 PM 33.2765 -95.4678 229° Southwest  Level FlightAware
Fri 06:50:00 PM 33.2570 -95.4947 229° Southwest  Level FlightAware
Fri 06:51:00 PM 33.2376 -95.5216 229° Southwest  Level FlightAware
Fri 06:52:00 PM 33.2181 -95.5484 229° Southwest  Level FlightAware
Fri 06:53:00 PM 33.1987 -95.5753 229° Southwest  Level FlightAware
Fri 06:54:00 PM 33.1792 -95.6022 229° Southwest  Level FlightAware
Fri 06:55:00 PM 33.1597 -95.6290 229° Southwest  Level FlightAware
Fri 06:56:00 PM 33.1402 -95.6558 229° Southwest  Level FlightAware
Fri 06:57:00 PM 33.1208 -95.6827 229° Southwest  Level FlightAware
Fri 06:58:00 PM 33.1013 -95.7095 229° Southwest  Level FlightAware
Fri 06:59:00 PM 33.0818 -95.7363 229° Southwest  Level FlightAware
Fri 07:00:00 PM 33.0623 -95.7630 229° Southwest  Level FlightAware
Fri 07:01:00 PM 33.0428 -95.7898 229° Southwest  Level FlightAware
Fri 07:02:00 PM 33.0233 -95.8166 229° Southwest  Level FlightAware
Fri 07:03:00 PM 33.0037 -95.8433 229° Southwest  Level FlightAware
Fri 07:04:00 PM 32.9842 -95.8701 229° Southwest  Level FlightAware
Fri 07:05:00 PM 32.9647 -95.8968 229° Southwest  Level FlightAware
Fri 07:06:00 PM 32.9451 -95.9235 229° Southwest  Level FlightAware
Fri 07:07:00 PM 32.9256 -95.9502 229° Southwest  Level FlightAware
Fri 07:08:00 PM 32.9061 -95.9769 229° Southwest  Level FlightAware
Fri 07:09:00 PM 32.8865 -96.0036 229° Southwest  Level FlightAware
Fri 07:10:00 PM 32.8670 -96.0302 229° Southwest  Level FlightAware
Fri 07:11:00 PM 32.8474 -96.0569 229° Southwest  Level FlightAware
Fri 07:12:00 PM 32.8278 -96.0835 229° Southwest  Level FlightAware
Fri 07:13:00 PM 32.8083 -96.1102 229° Southwest  Level FlightAware
Fri 07:14:00 PM 32.7887 -96.1368 229° Southwest  Level FlightAware
Fri 07:15:00 PM 32.7691 -96.1634 229° Southwest  Level FlightAware
Fri 07:16:00 PM 32.7533 -96.1933 239° Southwest  Level FlightAware
Fri 07:17:00 PM 32.7346 -96.2206 228° Southwest  Level FlightAware
Fri 07:18:00 PM 32.7148 -96.2470 228° Southwest  Level FlightAware
Fri 07:19:00 PM 32.7000 -96.2667 228° Southwest  Level FlightAware
Fri 07:20:00 PM 32.7085 -96.2671 228° Southwest  Level Estimated
Fri 07:21:00 PM 32.7085 -96.2671 228° Southwest  Level Estimated
Fri 07:22:00 PM 32.7085 -96.2671 228° Southwest  Level Estimated
Fri 07:23:00 PM 32.7085 -96.2671 228° Southwest  Level Estimated
Fri 07:24:00 PM 32.7085 -96.2671 228° Southwest  Level Estimated
Fri 07:25:00 PM 32.7085 -96.2671 228° Southwest  Level Estimated
Fri 07:26:00 PM 32.7085 -96.2671 228° Southwest  Level Estimated
Fri 07:27:00 PM 32.7085 -96.2671 228° Southwest  Level Estimated
Fri 07:28:00 PM 32.7085 -96.2671 228° Southwest  Level Estimated
Fri 07:29:00 PM 32.7085 -96.2671 228° Southwest  Level Estimated
Fri 07:30:00 PM 32.7085 -96.2671 228° Southwest  Level Estimated
Fri 07:31:00 PM 32.7085 -96.2671 228° Southwest  Level Estimated
Fri 07:32:00 PM 32.7085 -96.2671 228° Southwest  Level Estimated
Fri 07:33:00 PM 32.7085 -96.2671 228° Southwest  Level Estimated
Fri 07:34:00 PM 32.7085 -96.2671 228° Southwest  Level Estimated
Fri 07:35:00 PM 32.7085 -96.2671 228° Southwest  Level Estimated

Login

Don't have an account? Register now (free) for customized features, flight alerts, and more!